sensor_id;sensor_type;location;lat;lon;timestamp;P1;durP1;ratioP1;P2;durP2;ratioP2
42598;SDS011;28225;42.714;23.860;2023-12-29T00:00:13;42.70;;;29.73;;
42598;SDS011;28225;42.714;23.860;2023-12-29T00:00:29;44.60;;;30.10;;
42598;SDS011;28225;42.714;23.860;2023-12-29T00:00:44;42.30;;;30.03;;
42598;SDS011;28225;42.714;23.860;2023-12-29T00:01:00;40.20;;;28.58;;
42598;SDS011;28225;42.714;23.860;2023-12-29T00:01:17;39.42;;;27.95;;
42598;SDS011;28225;42.714;23.860;2023-12-29T00:01:33;38.85;;;28.40;;
42598;SDS011;28225;42.714;23.860;2023-12-29T00:01:48;40.83;;;28.77;;
42598;SDS011;28225;42.714;23.860;2023-12-29T00:02:04;41.50;;;28.98;;
42598;SDS011;28225;42.714;23.860;2023-12-29T00:02:19;41.63;;;29.17;;
42598;SDS011;28225;42.714;23.860;2023-12-29T00:02:35;42.83;;;28.45;;
42598;SDS011;28225;42.714;23.860;2023-12-29T00:02:50;42.47;;;28.30;;
42598;SDS011;28225;42.714;23.860;2023-12-29T00:03:06;38.67;;;27.80;;
42598;SDS011;28225;42.714;23.860;2023-12-29T00:03:21;37.93;;;27.53;;
42598;SDS011;28225;42.714;23.860;2023-12-29T00:03:37;38.40;;;27.70;;
42598;SDS011;28225;42.714;23.860;2023-12-29T00:03:52;39.30;;;27.60;;
42598;SDS011;28225;42.714;23.860;2023-12-29T00:04:07;42.95;;;29.02;;
42598;SDS011;28225;42.714;23.860;2023-12-29T00:04:23;41.83;;;29.07;;
42598;SDS011;28225;42.714;23.860;2023-12-29T00:04:38;38.88;;;27.38;;
42598;SDS011;28225;42.714;23.860;2023-12-29T00:04:54;41.73;;;27.93;;
42598;SDS011;28225;42.714;23.860;2023-12-29T00:05:09;41.07;;;26.43;;
42598;SDS011;28225;42.714;23.860;2023-12-29T00:05:25;34.83;;;23.70;;
42598;SDS011;28225;42.714;23.860;2023-12-29T00:05:42;33.10;;;23.02;;
42598;SDS011;28225;42.714;23.860;2023-12-29T00:05:57;32.03;;;22.53;;
42598;SDS011;28225;42.714;23.860;2023-12-29T00:06:12;29.63;;;21.20;;
42598;SDS011;28225;42.714;23.860;2023-12-29T00:06:28;28.83;;;20.83;;
42598;SDS011;28225;42.714;23.860;2023-12-29T00:06:43;29.27;;;20.77;;
42598;SDS011;28225;42.714;23.860;2023-12-29T00:06:59;28.80;;;20.40;;
42598;SDS011;28225;42.714;23.860;2023-12-29T00:07:15;30.27;;;21.43;;
42598;SDS011;28225;42.714;23.860;2023-12-29T00:07:31;29.40;;;21.17;;
42598;SDS011;28225;42.714;23.860;2023-12-29T00:07:46;30.40;;;20.90;;
42598;SDS011;28225;42.714;23.860;2023-12-29T00:08:01;32.40;;;21.70;;
42598;SDS011;28225;42.714;23.860;2023-12-29T00:08:17;31.83;;;21.47;;
42598;SDS011;28225;42.714;23.860;2023-12-29T00:08:32;30.58;;;21.20;;
42598;SDS011;28225;42.714;23.860;2023-12-29T00:08:48;31.53;;;23.17;;
42598;SDS011;28225;42.714;23.860;2023-12-29T00:09:03;32.97;;;23.45;;
42598;SDS011;28225;42.714;23.860;2023-12-29T00:09:19;32.47;;;22.13;;
42598;SDS011;28225;42.714;23.860;2023-12-29T00:09:37;32.35;;;22.73;;
42598;SDS011;28225;42.714;23.860;2023-12-29T00:09:55;29.40;;;21.90;;
42598;SDS011;28225;42.714;23.860;2023-12-29T00:10:11;27.00;;;20.80;;
42598;SDS011;28225;42.714;23.860;2023-12-29T00:10:26;26.47;;;20.13;;
42598;SDS011;28225;42.714;23.860;2023-12-29T00:10:41;31.10;;;21.55;;
42598;SDS011;28225;42.714;23.860;2023-12-29T00:10:57;30.63;;;22.15;;
42598;SDS011;28225;42.714;23.860;2023-12-29T00:11:16;30.80;;;22.03;;
42598;SDS011;28225;42.714;23.860;2023-12-29T00:11:34;30.55;;;22.08;;
42598;SDS011;28225;42.714;23.860;2023-12-29T00:11:50;31.87;;;22.53;;
42598;SDS011;28225;42.714;23.860;2023-12-29T00:12:06;33.92;;;23.23;;
42598;SDS011;28225;42.714;23.860;2023-12-29T00:12:22;32.80;;;22.73;;
42598;SDS011;28225;42.714;23.860;2023-12-29T00:12:38;36.03;;;23.83;;
42598;SDS011;28225;42.714;23.860;2023-12-29T00:12:53;38.80;;;25.83;;
42598;SDS011;28225;42.714;23.860;2023-12-29T00:13:09;35.13;;;25.70;;
42598;SDS011;28225;42.714;23.860;2023-12-29T00:13:24;31.48;;;23.75;;
42598;SDS011;28225;42.714;23.860;2023-12-29T00:13:40;31.70;;;23.40;;
42598;SDS011;28225;42.714;23.860;2023-12-29T00:13:55;34.28;;;23.55;;
42598;SDS011;28225;42.714;23.860;2023-12-29T00:14:11;35.77;;;24.40;;
42598;SDS011;28225;42.714;23.860;2023-12-29T00:14:26;36.13;;;25.23;;
42598;SDS011;28225;42.714;23.860;2023-12-29T00:14:42;34.00;;;25.03;;
42598;SDS011;28225;42.714;23.860;2023-12-29T00:14:58;33.80;;;24.58;;
42598;SDS011;28225;42.714;23.860;2023-12-29T00:15:16;34.77;;;25.10;;
42598;SDS011;28225;42.714;23.860;2023-12-29T00:15:33;33.83;;;23.15;;
42598;SDS011;28225;42.714;23.860;2023-12-29T00:15:51;31.20;;;20.90;;
42598;SDS011;28225;42.714;23.860;2023-12-29T00:16:06;29.48;;;20.02;;
42598;SDS011;28225;42.714;23.860;2023-12-29T00:16:23;32.83;;;21.20;;
42598;SDS011;28225;42.714;23.860;2023-12-29T00:16:38;35.72;;;22.33;;
42598;SDS011;28225;42.714;23.860;2023-12-29T00:16:53;34.63;;;21.73;;
42598;SDS011;28225;42.714;23.860;2023-12-29T00:17:12;32.05;;;21.27;;
42598;SDS011;28225;42.714;23.860;2023-12-29T00:17:27;34.22;;;20.40;;
42598;SDS011;28225;42.714;23.860;2023-12-29T00:17:43;31.33;;;19.63;;
42598;SDS011;28225;42.714;23.860;2023-12-29T00:17:58;30.40;;;19.90;;
42598;SDS011;28225;42.714;23.860;2023-12-29T00:18:13;34.93;;;19.97;;
42598;SDS011;28225;42.714;23.860;2023-12-29T00:18:29;34.30;;;19.83;;
42598;SDS011;28225;42.714;23.860;2023-12-29T00:18:44;34.10;;;19.67;;
42598;SDS011;28225;42.714;23.860;2023-12-29T00:19:00;37.08;;;19.35;;
42598;SDS011;28225;42.714;23.860;2023-12-29T00:19:15;34.07;;;18.90;;
42598;SDS011;28225;42.714;23.860;2023-12-29T00:19:31;31.10;;;18.70;;
42598;SDS011;28225;42.714;23.860;2023-12-29T00:19:46;35.00;;;19.75;;
42598;SDS011;28225;42.714;23.860;2023-12-29T00:20:02;34.07;;;20.37;;
42598;SDS011;28225;42.714;23.860;2023-12-29T00:20:22;27.65;;;19.52;;
42598;SDS011;28225;42.714;23.860;2023-12-29T00:20:38;28.10;;;18.80;;
42598;SDS011;28225;42.714;23.860;2023-12-29T00:20:53;27.05;;;18.88;;
42598;SDS011;28225;42.714;23.860;2023-12-29T00:21:09;28.00;;;18.73;;
42598;SDS011;28225;42.714;23.860;2023-12-29T00:21:24;27.40;;;17.67;;
42598;SDS011;28225;42.714;23.860;2023-12-29T00:21:39;24.60;;;17.27;;
42598;SDS011;28225;42.714;23.860;2023-12-29T00:21:55;23.90;;;16.45;;
42598;SDS011;28225;42.714;23.860;2023-12-29T00:22:10;21.70;;;15.93;;
42598;SDS011;28225;42.714;23.860;2023-12-29T00:22:26;21.83;;;15.82;;
42598;SDS011;28225;42.714;23.860;2023-12-29T00:22:42;22.48;;;15.85;;
42598;SDS011;28225;42.714;23.860;2023-12-29T00:22:58;25.20;;;17.30;;
42598;SDS011;28225;42.714;23.860;2023-12-29T00:23:13;27.08;;;17.95;;
42598;SDS011;28225;42.714;23.860;2023-12-29T00:23:29;23.65;;;16.88;;
42598;SDS011;28225;42.714;23.860;2023-12-29T00:23:44;25.10;;;17.10;;
42598;SDS011;28225;42.714;23.860;2023-12-29T00:24:00;26.27;;;17.53;;
42598;SDS011;28225;42.714;23.860;2023-12-29T00:24:15;22.13;;;17.20;;
42598;SDS011;28225;42.714;23.860;2023-12-29T00:24:32;22.67;;;16.95;;
42598;SDS011;28225;42.714;23.860;2023-12-29T00:24:47;24.40;;;16.88;;
42598;SDS011;28225;42.714;23.860;2023-12-29T00:25:03;25.20;;;16.90;;
42598;SDS011;28225;42.714;23.860;2023-12-29T00:25:19;22.40;;;16.10;;
42598;SDS011;28225;42.714;23.860;2023-12-29T00:25:37;22.77;;;16.07;;
42598;SDS011;28225;42.714;23.860;2023-12-29T00:25:53;21.60;;;15.48;;
42598;SDS011;28225;42.714;23.860;2023-12-29T00:26:08;21.10;;;14.17;;
42598;SDS011;28225;42.714;23.860;2023-12-29T00:26:24;20.38;;;13.57;;
42598;SDS011;28225;42.714;23.860;2023-12-29T00:26:39;17.80;;;13.57;;
42598;SDS011;28225;42.714;23.860;2023-12-29T00:26:55;17.38;;;13.38;;
42598;SDS011;28225;42.714;23.860;2023-12-29T00:27:10;16.70;;;12.90;;
42598;SDS011;28225;42.714;23.860;2023-12-29T00:27:26;16.67;;;12.75;;
42598;SDS011;28225;42.714;23.860;2023-12-29T00:27:41;17.53;;;13.10;;
42598;SDS011;28225;42.714;23.860;2023-12-29T00:27:57;18.17;;;13.55;;
42598;SDS011;28225;42.714;23.860;2023-12-29T00:28:12;19.80;;;14.00;;
42598;SDS011;28225;42.714;23.860;2023-12-29T00:28:28;20.40;;;13.70;;
42598;SDS011;28225;42.714;23.860;2023-12-29T00:28:44;18.05;;;13.25;;
42598;SDS011;28225;42.714;23.860;2023-12-29T00:28:59;17.03;;;12.80;;
42598;SDS011;28225;42.714;23.860;2023-12-29T00:29:15;19.23;;;12.88;;
42598;SDS011;28225;42.714;23.860;2023-12-29T00:29:30;21.00;;;13.43;;
42598;SDS011;28225;42.714;23.860;2023-12-29T00:29:48;21.23;;;13.05;;
42598;SDS011;28225;42.714;23.860;2023-12-29T00:30:03;20.20;;;13.33;;
42598;SDS011;28225;42.714;23.860;2023-12-29T00:30:19;20.83;;;13.80;;
42598;SDS011;28225;42.714;23.860;2023-12-29T00:30:37;19.02;;;13.15;;
42598;SDS011;28225;42.714;23.860;2023-12-29T00:30:53;18.80;;;13.88;;
42598;SDS011;28225;42.714;23.860;2023-12-29T00:31:13;18.80;;;14.50;;
42598;SDS011;28225;42.714;23.860;2023-12-29T00:31:30;19.50;;;14.10;;
42598;SDS011;28225;42.714;23.860;2023-12-29T00:31:46;20.15;;;14.18;;
42598;SDS011;28225;42.714;23.860;2023-12-29T00:32:01;18.47;;;12.97;;
42598;SDS011;28225;42.714;23.860;2023-12-29T00:32:17;19.80;;;13.60;;
42598;SDS011;28225;42.714;23.860;2023-12-29T00:32:32;23.50;;;14.30;;
42598;SDS011;28225;42.714;23.860;2023-12-29T00:32:48;25.20;;;15.37;;
42598;SDS011;28225;42.714;23.860;2023-12-29T00:33:03;25.23;;;17.17;;
42598;SDS011;28225;42.714;23.860;2023-12-29T00:33:19;24.63;;;17.43;;
42598;SDS011;28225;42.714;23.860;2023-12-29T00:33:35;27.42;;;18.38;;
42598;SDS011;28225;42.714;23.860;2023-12-29T00:33:50;29.53;;;18.43;;
42598;SDS011;28225;42.714;23.860;2023-12-29T00:34:07;28.88;;;18.15;;
42598;SDS011;28225;42.714;23.860;2023-12-29T00:34:23;27.47;;;19.20;;
42598;SDS011;28225;42.714;23.860;2023-12-29T00:34:38;25.52;;;19.85;;
42598;SDS011;28225;42.714;23.860;2023-12-29T00:34:54;28.97;;;20.67;;
42598;SDS011;28225;42.714;23.860;2023-12-29T00:35:09;29.67;;;20.80;;
42598;SDS011;28225;42.714;23.860;2023-12-29T00:35:25;29.27;;;21.00;;
42598;SDS011;28225;42.714;23.860;2023-12-29T00:35:40;31.48;;;21.65;;
42598;SDS011;28225;42.714;23.860;2023-12-29T00:35:56;33.73;;;22.33;;
42598;SDS011;28225;42.714;23.860;2023-12-29T00:36:17;33.67;;;22.63;;
42598;SDS011;28225;42.714;23.860;2023-12-29T00:36:33;30.50;;;21.98;;
42598;SDS011;28225;42.714;23.860;2023-12-29T00:36:49;32.90;;;22.87;;
42598;SDS011;28225;42.714;23.860;2023-12-29T00:37:05;33.28;;;23.85;;
42598;SDS011;28225;42.714;23.860;2023-12-29T00:37:21;34.15;;;24.30;;
42598;SDS011;28225;42.714;23.860;2023-12-29T00:37:36;34.83;;;24.60;;
42598;SDS011;28225;42.714;23.860;2023-12-29T00:37:52;34.00;;;25.53;;
42598;SDS011;28225;42.714;23.860;2023-12-29T00:38:07;36.55;;;27.60;;
42598;SDS011;28225;42.714;23.860;2023-12-29T00:38:23;35.80;;;28.23;;
42598;SDS011;28225;42.714;23.860;2023-12-29T00:38:38;35.15;;;27.33;;
42598;SDS011;28225;42.714;23.860;2023-12-29T00:38:53;34.93;;;25.77;;
42598;SDS011;28225;42.714;23.860;2023-12-29T00:39:09;33.10;;;24.57;;
42598;SDS011;28225;42.714;23.860;2023-12-29T00:39:24;32.28;;;23.33;;
42598;SDS011;28225;42.714;23.860;2023-12-29T00:39:44;32.47;;;22.67;;
42598;SDS011;28225;42.714;23.860;2023-12-29T00:40:00;34.70;;;24.57;;
42598;SDS011;28225;42.714;23.860;2023-12-29T00:40:15;34.55;;;24.70;;
42598;SDS011;28225;42.714;23.860;2023-12-29T00:40:31;34.07;;;24.57;;
42598;SDS011;28225;42.714;23.860;2023-12-29T00:40:47;32.08;;;23.38;;
42598;SDS011;28225;42.714;23.860;2023-12-29T00:41:02;28.63;;;21.30;;
42598;SDS011;28225;42.714;23.860;2023-12-29T00:41:19;29.05;;;20.42;;
42598;SDS011;28225;42.714;23.860;2023-12-29T00:41:35;27.63;;;19.35;;
42598;SDS011;28225;42.714;23.860;2023-12-29T00:41:50;24.63;;;18.80;;
42598;SDS011;28225;42.714;23.860;2023-12-29T00:42:06;25.60;;;18.37;;
42598;SDS011;28225;42.714;23.860;2023-12-29T00:42:22;24.75;;;16.77;;
42598;SDS011;28225;42.714;23.860;2023-12-29T00:42:37;25.33;;;16.65;;
42598;SDS011;28225;42.714;23.860;2023-12-29T00:42:53;25.87;;;16.67;;
42598;SDS011;28225;42.714;23.860;2023-12-29T00:43:08;21.13;;;15.05;;
42598;SDS011;28225;42.714;23.860;2023-12-29T00:43:23;18.37;;;14.57;;
42598;SDS011;28225;42.714;23.860;2023-12-29T00:43:39;18.80;;;14.75;;
42598;SDS011;28225;42.714;23.860;2023-12-29T00:43:54;18.23;;;13.80;;
42598;SDS011;28225;42.714;23.860;2023-12-29T00:44:10;17.83;;;13.80;;
42598;SDS011;28225;42.714;23.860;2023-12-29T00:44:25;17.50;;;13.40;;
42598;SDS011;28225;42.714;23.860;2023-12-29T00:44:41;15.87;;;11.90;;
42598;SDS011;28225;42.714;23.860;2023-12-29T00:44:56;17.27;;;12.57;;
42598;SDS011;28225;42.714;23.860;2023-12-29T00:45:12;20.70;;;14.57;;
42598;SDS011;28225;42.714;23.860;2023-12-29T00:45:27;20.70;;;14.52;;
42598;SDS011;28225;42.714;23.860;2023-12-29T00:45:48;19.75;;;15.23;;
42598;SDS011;28225;42.714;23.860;2023-12-29T00:46:04;21.73;;;16.30;;
42598;SDS011;28225;42.714;23.860;2023-12-29T00:46:20;24.27;;;16.27;;
42598;SDS011;28225;42.714;23.860;2023-12-29T00:46:35;24.40;;;16.60;;
42598;SDS011;28225;42.714;23.860;2023-12-29T00:46:51;23.13;;;16.55;;
42598;SDS011;28225;42.714;23.860;2023-12-29T00:47:06;23.23;;;17.40;;
42598;SDS011;28225;42.714;23.860;2023-12-29T00:47:22;23.85;;;18.13;;
42598;SDS011;28225;42.714;23.860;2023-12-29T00:47:38;27.85;;;18.38;;
42598;SDS011;28225;42.714;23.860;2023-12-29T00:47:54;29.42;;;19.27;;
42598;SDS011;28225;42.714;23.860;2023-12-29T00:48:10;27.17;;;19.63;;
42598;SDS011;28225;42.714;23.860;2023-12-29T00:48:25;28.97;;;20.10;;
42598;SDS011;28225;42.714;23.860;2023-12-29T00:48:41;31.45;;;20.27;;
42598;SDS011;28225;42.714;23.860;2023-12-29T00:48:56;31.80;;;20.50;;
42598;SDS011;28225;42.714;23.860;2023-12-29T00:49:12;30.00;;;20.65;;
42598;SDS011;28225;42.714;23.860;2023-12-29T00:49:27;28.20;;;20.23;;
42598;SDS011;28225;42.714;23.860;2023-12-29T00:49:43;28.30;;;19.98;;
42598;SDS011;28225;42.714;23.860;2023-12-29T00:49:58;30.50;;;20.60;;
42598;SDS011;28225;42.714;23.860;2023-12-29T00:50:14;29.97;;;20.90;;
42598;SDS011;28225;42.714;23.860;2023-12-29T00:50:29;26.98;;;20.08;;
42598;SDS011;28225;42.714;23.860;2023-12-29T00:50:45;25.75;;;19.02;;
42598;SDS011;28225;42.714;23.860;2023-12-29T00:51:01;27.60;;;20.33;;
42598;SDS011;28225;42.714;23.860;2023-12-29T00:51:17;27.73;;;20.05;;
42598;SDS011;28225;42.714;23.860;2023-12-29T00:51:33;26.88;;;19.60;;
42598;SDS011;28225;42.714;23.860;2023-12-29T00:51:48;26.87;;;19.97;;
42598;SDS011;28225;42.714;23.860;2023-12-29T00:52:04;26.10;;;18.60;;
42598;SDS011;28225;42.714;23.860;2023-12-29T00:52:20;26.70;;;18.27;;
42598;SDS011;28225;42.714;23.860;2023-12-29T00:52:35;25.27;;;18.87;;
42598;SDS011;28225;42.714;23.860;2023-12-29T00:52:51;24.50;;;18.88;;
42598;SDS011;28225;42.714;23.860;2023-12-29T00:53:07;26.13;;;19.38;;
42598;SDS011;28225;42.714;23.860;2023-12-29T00:53:22;29.23;;;19.47;;
42598;SDS011;28225;42.714;23.860;2023-12-29T00:53:38;30.98;;;19.73;;
42598;SDS011;28225;42.714;23.860;2023-12-29T00:53:53;28.90;;;20.10;;
42598;SDS011;28225;42.714;23.860;2023-12-29T00:54:08;24.13;;;18.80;;
42598;SDS011;28225;42.714;23.860;2023-12-29T00:54:24;23.83;;;18.23;;
42598;SDS011;28225;42.714;23.860;2023-12-29T00:54:40;29.30;;;19.90;;
42598;SDS011;28225;42.714;23.860;2023-12-29T00:54:55;30.83;;;21.02;;
42598;SDS011;28225;42.714;23.860;2023-12-29T00:55:11;30.83;;;20.90;;
42598;SDS011;28225;42.714;23.860;2023-12-29T00:55:26;30.17;;;21.33;;
42598;SDS011;28225;42.714;23.860;2023-12-29T00:55:42;28.35;;;21.23;;
42598;SDS011;28225;42.714;23.860;2023-12-29T00:55:57;29.83;;;21.17;;
42598;SDS011;28225;42.714;23.860;2023-12-29T00:56:14;29.17;;;20.83;;
42598;SDS011;28225;42.714;23.860;2023-12-29T00:56:29;27.85;;;20.17;;
42598;SDS011;28225;42.714;23.860;2023-12-29T00:56:51;28.43;;;20.37;;
42598;SDS011;28225;42.714;23.860;2023-12-29T00:57:06;28.55;;;21.40;;
42598;SDS011;28225;42.714;23.860;2023-12-29T00:57:22;29.40;;;20.93;;
42598;SDS011;28225;42.714;23.860;2023-12-29T00:57:37;27.60;;;19.13;;
42598;SDS011;28225;42.714;23.860;2023-12-29T00:57:53;26.57;;;19.03;;
42598;SDS011;28225;42.714;23.860;2023-12-29T00:58:09;27.63;;;20.08;;
42598;SDS011;28225;42.714;23.860;2023-12-29T00:58:24;26.95;;;20.00;;
42598;SDS011;28225;42.714;23.860;2023-12-29T00:58:40;29.00;;;20.80;;
42598;SDS011;28225;42.714;23.860;2023-12-29T00:58:55;30.43;;;21.40;;
42598;SDS011;28225;42.714;23.860;2023-12-29T00:59:10;27.38;;;21.00;;
42598;SDS011;28225;42.714;23.860;2023-12-29T00:59:26;28.60;;;22.27;;
42598;SDS011;28225;42.714;23.860;2023-12-29T00:59:42;31.13;;;23.03;;
42598;SDS011;28225;42.714;23.860;2023-12-29T00:59:59;31.45;;;21.88;;
42598;SDS011;28225;42.714;23.860;2023-12-29T01:00:15;28.42;;;21.00;;
42598;SDS011;28225;42.714;23.860;2023-12-29T01:00:31;27.27;;;21.17;;
42598;SDS011;28225;42.714;23.860;2023-12-29T01:00:46;28.63;;;21.75;;
42598;SDS011;28225;42.714;23.860;2023-12-29T01:01:02;30.13;;;22.13;;
42598;SDS011;28225;42.714;23.860;2023-12-29T01:01:17;29.90;;;21.20;;
42598;SDS011;28225;42.714;23.860;2023-12-29T01:01:33;28.87;;;20.63;;
42598;SDS011;28225;42.714;23.860;2023-12-29T01:01:50;27.35;;;21.23;;
42598;SDS011;28225;42.714;23.860;2023-12-29T01:02:05;26.52;;;20.50;;
42598;SDS011;28225;42.714;23.860;2023-12-29T01:02:21;27.83;;;20.33;;
42598;SDS011;28225;42.714;23.860;2023-12-29T01:02:36;26.38;;;19.75;;
42598;SDS011;28225;42.714;23.860;2023-12-29T01:02:52;25.23;;;19.20;;
42598;SDS011;28225;42.714;23.860;2023-12-29T01:03:07;26.73;;;18.88;;
42598;SDS011;28225;42.714;23.860;2023-12-29T01:03:22;28.73;;;19.43;;
42598;SDS011;28225;42.714;23.860;2023-12-29T01:03:38;28.30;;;20.35;;
42598;SDS011;28225;42.714;23.860;2023-12-29T01:03:53;27.27;;;19.73;;
42598;SDS011;28225;42.714;23.860;2023-12-29T01:04:09;28.73;;;19.95;;
42598;SDS011;28225;42.714;23.860;2023-12-29T01:04:25;28.27;;;20.27;;
42598;SDS011;28225;42.714;23.860;2023-12-29T01:04:40;28.63;;;20.80;;
42598;SDS011;28225;42.714;23.860;2023-12-29T01:04:56;26.67;;;19.77;;
42598;SDS011;28225;42.714;23.860;2023-12-29T01:05:14;24.67;;;17.50;;
42598;SDS011;28225;42.714;23.860;2023-12-29T01:05:31;24.10;;;17.23;;
42598;SDS011;28225;42.714;23.860;2023-12-29T01:05:47;22.20;;;16.83;;
42598;SDS011;28225;42.714;23.860;2023-12-29T01:06:02;20.63;;;15.95;;
42598;SDS011;28225;42.714;23.860;2023-12-29T01:06:18;20.47;;;15.57;;
42598;SDS011;28225;42.714;23.860;2023-12-29T01:06:33;19.73;;;14.63;;
42598;SDS011;28225;42.714;23.860;2023-12-29T01:06:48;19.60;;;13.57;;
42598;SDS011;28225;42.714;23.860;2023-12-29T01:07:04;19.20;;;13.15;;
42598;SDS011;28225;42.714;23.860;2023-12-29T01:07:19;17.77;;;12.77;;
42598;SDS011;28225;42.714;23.860;2023-12-29T01:07:35;17.33;;;12.48;;
42598;SDS011;28225;42.714;23.860;2023-12-29T01:07:50;16.83;;;11.43;;
42598;SDS011;28225;42.714;23.860;2023-12-29T01:08:06;15.90;;;10.23;;
42598;SDS011;28225;42.714;23.860;2023-12-29T01:08:21;16.00;;;9.43;;
42598;SDS011;28225;42.714;23.860;2023-12-29T01:08:37;13.90;;;8.83;;
42598;SDS011;28225;42.714;23.860;2023-12-29T01:08:52;13.55;;;9.48;;
42598;SDS011;28225;42.714;23.860;2023-12-29T01:09:07;13.30;;;9.87;;
42598;SDS011;28225;42.714;23.860;2023-12-29T01:09:27;13.65;;;9.60;;
42598;SDS011;28225;42.714;23.860;2023-12-29T01:09:42;13.68;;;9.70;;
42598;SDS011;28225;42.714;23.860;2023-12-29T01:09:57;13.83;;;10.27;;
42598;SDS011;28225;42.714;23.860;2023-12-29T01:10:13;13.98;;;10.60;;
42598;SDS011;28225;42.714;23.860;2023-12-29T01:10:29;14.17;;;10.27;;
42598;SDS011;28225;42.714;23.860;2023-12-29T01:10:44;13.90;;;9.73;;
42598;SDS011;28225;42.714;23.860;2023-12-29T01:10:59;14.20;;;10.03;;
42598;SDS011;28225;42.714;23.860;2023-12-29T01:11:15;12.77;;;10.25;;
42598;SDS011;28225;42.714;23.860;2023-12-29T01:11:30;14.17;;;10.77;;
42598;SDS011;28225;42.714;23.860;2023-12-29T01:11:46;16.10;;;11.32;;
42598;SDS011;28225;42.714;23.860;2023-12-29T01:12:01;15.93;;;11.13;;
42598;SDS011;28225;42.714;23.860;2023-12-29T01:12:17;15.65;;;11.15;;
42598;SDS011;28225;42.714;23.860;2023-12-29T01:12:32;16.67;;;11.10;;
42598;SDS011;28225;42.714;23.860;2023-12-29T01:12:47;16.73;;;11.57;;
42598;SDS011;28225;42.714;23.860;2023-12-29T01:13:03;14.23;;;11.68;;
42598;SDS011;28225;42.714;23.860;2023-12-29T01:13:19;18.58;;;13.00;;
42598;SDS011;28225;42.714;23.860;2023-12-29T01:13:34;20.83;;;14.40;;
42598;SDS011;28225;42.714;23.860;2023-12-29T01:13:49;18.30;;;14.27;;
42598;SDS011;28225;42.714;23.860;2023-12-29T01:14:05;18.70;;;14.65;;
42598;SDS011;28225;42.714;23.860;2023-12-29T01:14:20;19.88;;;15.82;;
42598;SDS011;28225;42.714;23.860;2023-12-29T01:14:36;20.40;;;16.30;;
42598;SDS011;28225;42.714;23.860;2023-12-29T01:14:52;21.38;;;16.63;;
42598;SDS011;28225;42.714;23.860;2023-12-29T01:15:07;22.23;;;16.23;;
42598;SDS011;28225;42.714;23.860;2023-12-29T01:15:23;21.55;;;15.75;;
42598;SDS011;28225;42.714;23.860;2023-12-29T01:15:39;20.60;;;15.68;;
42598;SDS011;28225;42.714;23.860;2023-12-29T01:15:55;20.85;;;15.63;;
42598;SDS011;28225;42.714;23.860;2023-12-29T01:16:11;22.48;;;16.10;;
42598;SDS011;28225;42.714;23.860;2023-12-29T01:16:26;23.83;;;17.40;;
42598;SDS011;28225;42.714;23.860;2023-12-29T01:16:42;24.63;;;17.90;;
42598;SDS011;28225;42.714;23.860;2023-12-29T01:16:57;25.00;;;18.87;;
42598;SDS011;28225;42.714;23.860;2023-12-29T01:17:13;25.60;;;20.75;;
42598;SDS011;28225;42.714;23.860;2023-12-29T01:17:28;27.80;;;20.27;;
42598;SDS011;28225;42.714;23.860;2023-12-29T01:17:44;24.70;;;18.15;;
42598;SDS011;28225;42.714;23.860;2023-12-29T01:17:59;20.07;;;16.47;;
42598;SDS011;28225;42.714;23.860;2023-12-29T01:18:14;19.50;;;15.18;;
42598;SDS011;28225;42.714;23.860;2023-12-29T01:18:31;17.60;;;13.37;;
42598;SDS011;28225;42.714;23.860;2023-12-29T01:18:46;15.75;;;12.18;;
42598;SDS011;28225;42.714;23.860;2023-12-29T01:19:02;16.43;;;12.77;;
42598;SDS011;28225;42.714;23.860;2023-12-29T01:19:17;16.05;;;12.35;;
42598;SDS011;28225;42.714;23.860;2023-12-29T01:19:33;18.27;;;12.20;;
42598;SDS011;28225;42.714;23.860;2023-12-29T01:19:48;18.40;;;12.27;;
42598;SDS011;28225;42.714;23.860;2023-12-29T01:20:04;16.10;;;11.60;;
42598;SDS011;28225;42.714;23.860;2023-12-29T01:20:19;17.55;;;11.77;;
42598;SDS011;28225;42.714;23.860;2023-12-29T01:20:35;17.80;;;11.73;;
42598;SDS011;28225;42.714;23.860;2023-12-29T01:20:50;17.30;;;12.53;;
42598;SDS011;28225;42.714;23.860;2023-12-29T01:21:06;17.35;;;13.60;;
42598;SDS011;28225;42.714;23.860;2023-12-29T01:21:21;17.27;;;13.33;;
42598;SDS011;28225;42.714;23.860;2023-12-29T01:21:39;17.50;;;12.80;;
42598;SDS011;28225;42.714;23.860;2023-12-29T01:21:55;16.98;;;12.30;;
42598;SDS011;28225;42.714;23.860;2023-12-29T01:22:10;16.67;;;12.00;;
42598;SDS011;28225;42.714;23.860;2023-12-29T01:22:26;14.67;;;11.13;;
42598;SDS011;28225;42.714;23.860;2023-12-29T01:22:41;13.98;;;10.73;;
42598;SDS011;28225;42.714;23.860;2023-12-29T01:22:57;14.87;;;11.73;;
42598;SDS011;28225;42.714;23.860;2023-12-29T01:23:12;15.10;;;12.10;;
42598;SDS011;28225;42.714;23.860;2023-12-29T01:23:27;16.70;;;12.80;;
42598;SDS011;28225;42.714;23.860;2023-12-29T01:23:43;17.90;;;13.90;;
42598;SDS011;28225;42.714;23.860;2023-12-29T01:23:58;17.52;;;13.43;;
42598;SDS011;28225;42.714;23.860;2023-12-29T01:24:14;18.48;;;13.43;;
42598;SDS011;28225;42.714;23.860;2023-12-29T01:24:30;18.73;;;14.10;;
42598;SDS011;28225;42.714;23.860;2023-12-29T01:24:45;18.50;;;13.85;;
42598;SDS011;28225;42.714;23.860;2023-12-29T01:25:01;18.73;;;13.27;;
42598;SDS011;28225;42.714;23.860;2023-12-29T01:25:16;16.25;;;12.55;;
42598;SDS011;28225;42.714;23.860;2023-12-29T01:25:32;14.10;;;11.57;;
42598;SDS011;28225;42.714;23.860;2023-12-29T01:25:47;14.43;;;10.90;;
42598;SDS011;28225;42.714;23.860;2023-12-29T01:26:03;15.53;;;10.90;;
42598;SDS011;28225;42.714;23.860;2023-12-29T01:26:18;17.65;;;11.45;;
42598;SDS011;28225;42.714;23.860;2023-12-29T01:26:37;19.20;;;12.90;;
42598;SDS011;28225;42.714;23.860;2023-12-29T01:26:53;17.95;;;13.38;;
42598;SDS011;28225;42.714;23.860;2023-12-29T01:27:08;16.15;;;12.50;;
42598;SDS011;28225;42.714;23.860;2023-12-29T01:27:24;16.13;;;11.40;;
42598;SDS011;28225;42.714;23.860;2023-12-29T01:27:39;17.08;;;11.18;;
42598;SDS011;28225;42.714;23.860;2023-12-29T01:27:55;16.07;;;11.77;;
42598;SDS011;28225;42.714;23.860;2023-12-29T01:28:10;16.30;;;12.23;;
42598;SDS011;28225;42.714;23.860;2023-12-29T01:28:26;16.95;;;12.57;;
42598;SDS011;28225;42.714;23.860;2023-12-29T01:28:41;15.70;;;12.53;;
42598;SDS011;28225;42.714;23.860;2023-12-29T01:28:57;14.25;;;12.00;;
42598;SDS011;28225;42.714;23.860;2023-12-29T01:29:12;14.40;;;11.67;;
42598;SDS011;28225;42.714;23.860;2023-12-29T01:29:28;14.23;;;10.93;;
42598;SDS011;28225;42.714;23.860;2023-12-29T01:29:44;15.40;;;10.80;;
42598;SDS011;28225;42.714;23.860;2023-12-29T01:29:59;16.50;;;11.37;;
42598;SDS011;28225;42.714;23.860;2023-12-29T01:30:15;16.55;;;11.02;;
42598;SDS011;28225;42.714;23.860;2023-12-29T01:30:30;16.07;;;11.00;;
42598;SDS011;28225;42.714;23.860;2023-12-29T01:30:46;15.82;;;11.60;;
42598;SDS011;28225;42.714;23.860;2023-12-29T01:31:01;14.70;;;11.90;;